createdAt,value
2022-12-16T00:00:09.914Z,100.00
2022-12-16T00:02:36.953Z,100.00
2022-12-16T00:05:05.069Z,100.00
2022-12-16T00:07:32.140Z,100.00
2022-12-16T00:09:59.010Z,100.00
2022-12-16T00:12:26.654Z,100.00
2022-12-16T00:14:53.661Z,100.00
2022-12-16T00:17:21.739Z,100.00
2022-12-16T00:19:48.794Z,100.00
2022-12-16T00:22:15.824Z,100.00
2022-12-16T00:24:42.709Z,100.00
2022-12-16T00:27:09.826Z,100.00
2022-12-16T00:29:36.780Z,100.00
2022-12-16T00:32:03.862Z,100.00
2022-12-16T00:34:30.740Z,100.00
2022-12-16T00:36:57.591Z,100.00
2022-12-16T00:39:24.533Z,100.00
2022-12-16T00:41:51.724Z,100.00
2022-12-16T00:44:18.989Z,100.00
2022-12-16T00:46:45.777Z,100.00
2022-12-16T00:49:12.591Z,100.00
2022-12-16T00:51:39.510Z,100.00
2022-12-16T00:54:06.499Z,100.00
2022-12-16T00:56:33.471Z,100.00
2022-12-16T00:59:00.243Z,100.00
2022-12-16T01:01:27.182Z,100.00
2022-12-16T01:03:56.984Z,100.00
2022-12-16T01:06:24.090Z,100.00
2022-12-16T01:08:52.973Z,100.00
2022-12-16T01:11:21.728Z,100.00
2022-12-16T01:13:52.039Z,100.00
2022-12-16T01:16:19.906Z,100.00
2022-12-16T01:18:46.857Z,100.00
2022-12-16T01:21:15.618Z,100.00
2022-12-16T01:23:42.948Z,100.00
2022-12-16T01:26:16.676Z,100.00
2022-12-16T01:28:43.861Z,100.00
2022-12-16T01:31:12.597Z,100.00
2022-12-16T01:33:39.815Z,100.00
2022-12-16T01:36:08.609Z,100.00
2022-12-16T01:38:36.221Z,100.00
2022-12-16T01:41:05.602Z,100.00
2022-12-16T01:43:36.261Z,100.00
2022-12-16T01:46:12.652Z,100.00
2022-12-16T01:48:43.710Z,100.00
2022-12-16T01:51:26.411Z,100.00
2022-12-16T01:53:58.565Z,100.00
2022-12-16T01:56:28.599Z,100.00
2022-12-16T01:58:56.172Z,100.00
2022-12-16T02:01:23.413Z,100.00
2022-12-16T02:03:53.173Z,100.00
2022-12-16T02:06:21.175Z,100.00
2022-12-16T02:08:54.541Z,100.00
2022-12-16T02:11:33.262Z,100.00
2022-12-16T02:14:37.396Z,100.00
2022-12-16T02:17:16.214Z,100.00
2022-12-16T02:20:07.998Z,100.00
2022-12-16T02:22:43.363Z,100.00
2022-12-16T02:25:28.832Z,100.00
2022-12-16T02:28:04.984Z,100.00
2022-12-16T02:30:50.350Z,100.00
2022-12-16T02:33:29.369Z,100.00
2022-12-16T02:36:02.574Z,100.00
2022-12-16T02:38:56.455Z,100.00
2022-12-16T02:41:29.320Z,100.00
2022-12-16T02:44:07.005Z,100.00
2022-12-16T02:46:42.291Z,100.00
2022-12-16T02:49:15.227Z,100.00
2022-12-16T02:51:42.377Z,100.00
2022-12-16T02:54:10.348Z,100.00
2022-12-16T02:56:46.178Z,100.00
2022-12-16T02:59:21.912Z,100.00
2022-12-16T03:01:58.797Z,100.00
2022-12-16T03:04:36.274Z,100.00
2022-12-16T03:07:05.967Z,100.00
2022-12-16T03:09:36.978Z,100.00
2022-12-16T03:12:09.111Z,100.00
2022-12-16T03:14:40.409Z,100.00
2022-12-16T03:17:09.178Z,100.00
2022-12-16T03:19:39.324Z,100.00
2022-12-16T03:22:17.805Z,100.00
2022-12-16T03:24:47.646Z,100.00
2022-12-16T03:27:18.897Z,100.00
2022-12-16T03:29:54.345Z,100.00
2022-12-16T03:32:36.355Z,100.00
2022-12-16T03:35:15.123Z,100.00
2022-12-16T03:37:44.494Z,100.00
2022-12-16T03:40:12.941Z,100.00
2022-12-16T03:42:41.528Z,100.00
2022-12-16T03:45:13.237Z,100.00
2022-12-16T03:47:40.320Z,100.00
2022-12-16T03:50:07.432Z,100.00
2022-12-16T03:52:34.268Z,100.00
2022-12-16T03:55:02.890Z,100.00
2022-12-16T03:57:29.788Z,100.00
2022-12-16T03:59:56.814Z,100.00
2022-12-16T04:02:23.722Z,100.00
2022-12-16T04:04:50.568Z,100.00
2022-12-16T04:07:24.868Z,100.00
2022-12-16T04:09:52.709Z,100.00
2022-12-16T04:12:39.145Z,100.00
2022-12-16T04:15:25.521Z,100.00
2022-12-16T04:18:11.232Z,100.00
2022-12-16T04:21:01.741Z,100.00
2022-12-16T04:23:49.427Z,100.00
2022-12-16T04:26:16.633Z,100.00
2022-12-16T04:28:43.432Z,100.00
2022-12-16T04:31:10.586Z,100.00
2022-12-16T04:33:56.076Z,100.00
2022-12-16T04:36:41.319Z,100.00
2022-12-16T04:39:26.649Z,100.00
2022-12-16T04:42:13.163Z,100.00
2022-12-16T04:44:58.848Z,100.00
2022-12-16T04:47:44.412Z,100.00
2022-12-16T04:50:30.037Z,100.00
2022-12-16T04:53:15.566Z,100.00
2022-12-16T04:56:04.336Z,100.00
2022-12-16T04:58:50.359Z,100.00
2022-12-16T05:01:35.793Z,100.00
2022-12-16T05:04:21.339Z,100.00
2022-12-16T05:07:06.956Z,100.00
2022-12-16T05:09:52.892Z,100.00
2022-12-16T05:12:38.158Z,100.00
2022-12-16T05:15:24.112Z,100.00
2022-12-16T05:18:09.743Z,100.00
2022-12-16T05:20:57.883Z,100.00
2022-12-16T05:23:43.310Z,100.00
2022-12-16T05:26:28.538Z,100.00
2022-12-16T05:29:13.931Z,100.00
2022-12-16T05:31:59.363Z,100.00
2022-12-16T05:34:44.837Z,100.00
2022-12-16T05:37:30.084Z,100.00
2022-12-16T05:40:15.606Z,100.00
2022-12-16T05:43:06.095Z,100.00
2022-12-16T05:45:51.232Z,100.00
2022-12-16T05:48:36.774Z,100.00
2022-12-16T05:51:22.339Z,100.00
2022-12-16T05:54:07.900Z,100.00
2022-12-16T05:56:53.208Z,100.00
2022-12-16T05:59:38.421Z,100.00
2022-12-16T06:02:24.475Z,100.00
2022-12-16T06:05:12.910Z,100.00
2022-12-16T06:07:58.320Z,100.00
2022-12-16T06:10:45.643Z,100.00
2022-12-16T06:13:31.567Z,100.00
2022-12-16T06:16:17.142Z,100.00
2022-12-16T06:19:02.804Z,100.00
2022-12-16T06:21:47.917Z,100.00
2022-12-16T06:24:33.425Z,100.00
2022-12-16T06:27:18.862Z,100.00
2022-12-16T06:30:04.319Z,100.00
2022-12-16T09:37:52.721Z,93.90
2022-12-16T09:40:44.724Z,92.71
2022-12-16T09:43:53.340Z,91.51
2022-12-16T09:47:08.770Z,88.12
2022-12-16T09:50:06.907Z,86.33
2022-12-16T09:52:59.870Z,84.86
2022-12-16T09:55:58.574Z,84.79
2022-12-16T09:58:58.793Z,84.92
2022-12-16T10:01:45.546Z,84.89
2022-12-16T10:04:30.920Z,85.57
2022-12-16T10:07:26.843Z,85.59
2022-12-16T10:10:48.727Z,83.83
2022-12-16T10:14:23.681Z,84.42
2022-12-16T10:17:27.490Z,82.23
2022-12-16T10:20:28.315Z,82.56
2022-12-16T10:23:52.133Z,81.58
2022-12-16T10:27:03.894Z,81.45
2022-12-16T10:29:51.802Z,81.11
2022-12-16T10:32:54.112Z,81.40
2022-12-16T10:35:50.250Z,80.69
2022-12-16T10:38:54.219Z,80.91
2022-12-16T10:41:44.365Z,79.30
2022-12-16T10:44:52.721Z,78.17
2022-12-16T10:47:40.851Z,77.24
2022-12-16T10:50:31.097Z,75.50
2022-12-16T10:53:23.544Z,75.65
2022-12-16T10:56:18.762Z,74.69
2022-12-16T10:59:16.600Z,73.98
2022-12-16T11:02:16.201Z,73.23
2022-12-16T11:05:02.369Z,73.46
2022-12-16T11:07:53.859Z,73.45
2022-12-16T11:10:47.151Z,72.42
2022-12-16T11:13:44.636Z,74.14
2022-12-16T11:16:43.503Z,74.99
2022-12-16T11:19:51.242Z,74.15
2022-12-16T11:22:40.328Z,73.21
2022-12-16T12:05:30.056Z,73.73
2022-12-16T12:09:00.222Z,74.58
2022-12-16T12:12:04.428Z,76.01
2022-12-16T12:15:12.144Z,75.03
2022-12-16T12:18:40.540Z,75.95
2022-12-16T12:22:15.521Z,77.45
2022-12-16T12:25:23.415Z,77.53
2022-12-16T12:29:04.261Z,78.65
2022-12-16T12:32:05.308Z,79.05
2022-12-16T12:35:22.266Z,78.95
2022-12-16T12:38:44.785Z,78.37
2022-12-16T12:42:20.927Z,77.09
2022-12-16T12:45:38.974Z,78.17
2022-12-16T16:26:37.407Z,100.00
2022-12-16T16:29:29.274Z,100.00
2022-12-16T16:32:24.772Z,100.00
2022-12-16T16:40:59.383Z,100.00
2022-12-16T16:43:46.259Z,100.00
2022-12-16T16:54:12.892Z,100.00
2022-12-16T16:56:58.384Z,100.00
2022-12-16T16:59:52.353Z,100.00
2022-12-16T17:02:55.040Z,100.00
2022-12-16T17:05:47.230Z,100.00
2022-12-16T17:08:35.803Z,100.00
2022-12-16T17:11:21.626Z,100.00
2022-12-16T17:14:06.948Z,100.00
2022-12-16T17:16:52.829Z,100.00
2022-12-16T17:19:38.545Z,100.00
2022-12-16T17:28:35.736Z,100.00
2022-12-16T17:31:21.397Z,100.00
2022-12-16T17:34:10.301Z,100.00
2022-12-16T17:59:11.298Z,100.00
2022-12-16T18:16:26.567Z,100.00
2022-12-16T18:44:09.753Z,100.00
2022-12-16T19:07:18.693Z,100.00
2022-12-16T19:10:39.174Z,100.00
2022-12-16T19:13:28.703Z,100.00
2022-12-16T19:23:28.500Z,100.00
2022-12-16T19:26:41.651Z,100.00
2022-12-16T19:30:35.956Z,100.00
2022-12-16T20:42:21.333Z,100.00
2022-12-16T21:48:08.105Z,100.00
2022-12-16T21:50:54.575Z,100.00
2022-12-16T21:53:43.644Z,100.00
2022-12-16T21:56:49.192Z,100.00
2022-12-16T21:59:47.273Z,100.00
2022-12-16T22:02:36.090Z,100.00
2022-12-16T22:05:23.023Z,100.00
2022-12-16T22:08:13.287Z,100.00
2022-12-16T22:11:48.380Z,100.00
2022-12-16T22:14:14.128Z,100.00
2022-12-16T22:17:01.301Z,100.00
2022-12-16T22:19:47.408Z,100.00
2022-12-16T22:22:34.130Z,100.00
2022-12-16T22:25:20.030Z,100.00
2022-12-16T22:28:06.590Z,100.00
2022-12-16T22:30:56.131Z,100.00
2022-12-16T22:34:33.522Z,100.00
2022-12-16T22:37:21.652Z,100.00
2022-12-16T22:40:19.886Z,100.00
2022-12-16T22:43:32.299Z,100.00
2022-12-16T22:46:47.775Z,100.00
2022-12-16T22:49:56.200Z,100.00
2022-12-16T22:52:52.974Z,100.00
2022-12-16T22:56:11.383Z,100.00
2022-12-16T23:00:16.250Z,100.00
2022-12-16T23:03:57.200Z,100.00
2022-12-16T23:17:18.231Z,100.00
2022-12-16T23:20:09.085Z,100.00
2022-12-16T23:22:57.444Z,100.00
2022-12-16T23:25:42.891Z,100.00
2022-12-16T23:28:31.027Z,100.00
2022-12-16T23:31:18.044Z,100.00
2022-12-16T23:34:04.989Z,100.00
2022-12-16T23:36:51.631Z,100.00
2022-12-16T23:39:44.531Z,100.00
2022-12-16T23:46:21.754Z,100.00
2022-12-16T23:49:34.027Z,100.00
2022-12-16T23:52:19.539Z,100.00
2022-12-16T23:56:13.955Z,100.00
2022-12-16T23:58:43.391Z,100.00
